OICK  Khoram Abad  Airport

Iran

Add Bookmark
ICAO OICK
IATA KHD
Type Airport
Status Operational
Latitude
33° 26' 7" N
33.435398
Longitude
48° 16' 58" E
48.282902
Local (GMT +4.5 ) UTC
Aug 30, 2016 01:33 pm Aug 30, 2016 09:03
Sunrise-Sunset Local UTC
Begin Civil Twilight 06:23 am 01:53
Sunrise 06:48 am 02:18
Sunset 07:45 pm 15:15
End Civil Twilight 08:11 pm 15:41
VFR
VFR
MVFR
MVFR
IFR
IFR
LIFR
LIFR
Unknown
Unavailable

Current Weather

METAR Observed VFR
OICK 300800Z 06004KT CAVOK 36/01 Q1016 Tue, Aug 30, 2016 @ 08:00 UTC
(1 Hour, 3 Minutes ago)
Visual Flight Rules
Wind Visibility Conditions
060° at 4 knots (7 kph) 10 km or more
  • No significant weather
Temperatures Readings Precipitation
Current Temp
36°C
97°F
Dewpoint
1°C
34°F
Humidity 11%
Altimeter 30" Hg
Sea Level Pressure 1,016 mb
Field Elevation
1,155 m
3,789 ft
None Recorded

Additional weather within a 92.6km radius of OICK

Map ICAO Location
OICJ 67.4km NE (040°)
VFR
VFR
MVFR
MVFR
IFR
IFR
LIFR
LIFR
Unknown
Unavailable
-
-

CheckWX.com is intended as a tool to help pilots better visualize weather data. It is not intended as a substitute for an official weather briefing obtained from a Flight Service Station. CheckWX.com does not meet the FAA requirements for an official pre-flight weather briefing. Therefore, it's important that pilots still call and obtain an official FSS pre-flight weather briefing.

© 2007-2016 CheckWX.com
09:03:29 UTC